Página principal
METAR-TAF:

METAR-TAF

Aeroportos :

Aeroporto Douglas-Charles

Marigot, Dominica

latitude: 15-32N, longitude: 061-18W, altura: 13 m

Observação actual do tempo

O boletim foi feito há 43 minutos, às 10:00 UTC
Vento 3 kt de es-sudeste
Temperatura 22°C
Humidade 88%
Pressão 1016 hPa
Visibilidade 10 km ou mais
Nuvens fragmentadasa uma altura de 1600 ft

METAR: TDPD 191000Z 12003KT 9999 BKN016 22/20 Q1016

Hora: 06:43 (10:43 UTC)

Previsão

O boletim foi feito há 17 horas e 43 minutos, às 17:00 UTC
Previsão válida de 18 às 18 UTC a 19 às 18 UTC
Vento 9 kt de es-sudeste
Visibilidade 10 km ou mais
Nuvens dispersasa uma altura de 1800 ft
Probabilidade 30% :
Temporariamente
de 18 às 20 UTC a 18 às 23 UTC
Nuvens fragmentadasa uma altura de 1400 ft
aguaceiros de chuva

TAF: TDPD 181700Z 1818/1918 12009KT 9999 SCT018 PROB30 TEMPO 1820/1823 SHRA BKN014

Observações e previsões do tempo de mais de 4000 aeroportos (mensagens METAR e TAF).

As estações disponíveis são os pontos amarelos e vermelhos sobre o mapa.

Mova o rato sobre o mapa para ver o nome da estação.

Depois clique no ponto para visualizar as observações e previsões meteorológicas.

Para alterar o mapa : clique nos botões verdes com uma cruz preta para aumentar o zoom; no botão verde com uma pitada de zoom; ou nas setas verdes para mapas adjacentes.


METAR-TAF: